createdAt,value
2022-12-15T00:02:59.922Z,88.83
2022-12-15T00:06:07.075Z,85.97
2022-12-15T00:09:14.414Z,87.53
2022-12-15T00:12:21.167Z,89.23
2022-12-15T00:15:27.808Z,86.13
2022-12-15T00:18:33.704Z,83.00
2022-12-15T00:21:40.913Z,81.90
2022-12-15T00:24:49.724Z,87.60
2022-12-15T00:27:55.569Z,75.70
2022-12-15T00:31:02.728Z,86.20
2022-12-15T00:34:08.968Z,97.13
2022-12-15T00:37:16.087Z,98.53
2022-12-15T00:40:05.430Z,94.17
2022-12-15T00:42:53.785Z,90.93
2022-12-15T00:46:04.041Z,93.60
2022-12-15T00:48:52.846Z,98.43
2022-12-15T00:51:58.563Z,88.90
2022-12-15T00:55:05.994Z,96.20
2022-12-15T00:58:12.275Z,98.60
2022-12-15T01:01:24.895Z,93.93
2022-12-15T01:04:30.704Z,82.27
2022-12-15T01:07:36.591Z,86.80
2022-12-15T01:10:44.233Z,92.60
2022-12-15T01:13:50.062Z,87.70
2022-12-15T01:16:56.083Z,92.77
2022-12-15T01:20:02.072Z,84.30
2022-12-15T01:22:52.961Z,87.60
2022-12-15T01:25:42.683Z,94.35
2022-12-15T01:28:31.263Z,88.87
2022-12-15T01:31:19.751Z,88.37
2022-12-15T01:34:08.095Z,94.83
2022-12-15T01:36:56.493Z,80.67
2022-12-15T01:40:02.167Z,82.47
2022-12-15T01:42:52.312Z,85.90
2022-12-15T01:45:55.991Z,77.70
2022-12-15T01:48:48.142Z,88.90
2022-12-15T01:51:40.678Z,81.80
2022-12-15T01:54:32.186Z,75.23
2022-12-15T01:57:26.412Z,78.40
2022-12-15T02:00:16.875Z,76.87
2022-12-15T02:03:07.083Z,60.33
2022-12-15T02:05:56.354Z,82.57
2022-12-15T02:08:48.267Z,76.40
2022-12-15T02:12:11.818Z,93.57
2022-12-15T02:15:12.896Z,79.83
2022-12-15T02:18:11.419Z,73.88
2022-12-15T02:21:03.446Z,67.20
2022-12-15T02:24:25.380Z,71.30
2022-12-15T02:27:41.184Z,74.27
2022-12-15T02:30:44.636Z,66.17
2022-12-15T02:33:34.724Z,75.77
2022-12-15T02:36:29.756Z,59.15
2022-12-15T02:39:19.618Z,64.23
2022-12-15T02:42:08.008Z,63.80
2022-12-15T02:45:00.553Z,60.97
2022-12-15T02:48:04.284Z,64.57
2022-12-15T02:51:08.480Z,63.53
2022-12-15T02:54:19.308Z,62.07
2022-12-15T02:57:17.340Z,56.28
2022-12-15T03:00:08.499Z,64.37
2022-12-15T03:05:46.779Z,62.33
2022-12-15T03:08:35.099Z,69.23
2022-12-15T03:11:23.957Z,61.77
2022-12-15T03:14:12.341Z,59.57
2022-12-15T03:17:00.856Z,69.23
2022-12-15T03:19:50.565Z,64.80
2022-12-15T03:22:39.649Z,59.40
2022-12-15T03:25:27.980Z,62.80
2022-12-15T03:28:16.294Z,54.37
2022-12-15T03:31:05.300Z,58.77
2022-12-15T03:33:53.607Z,63.23
2022-12-15T03:36:43.345Z,49.63
2022-12-15T03:39:31.682Z,59.73
2022-12-15T03:42:40.018Z,62.60
2022-12-15T03:45:29.989Z,54.93
2022-12-15T03:48:18.324Z,61.77
2022-12-15T03:51:06.781Z,57.83
2022-12-15T03:53:56.475Z,54.43
2022-12-15T03:56:44.805Z,58.13
2022-12-15T03:59:33.123Z,54.93
2022-12-15T04:02:21.706Z,54.23
2022-12-15T04:05:15.875Z,54.57
2022-12-15T04:08:04.520Z,52.83
2022-12-15T04:10:54.201Z,56.43
2022-12-15T04:13:42.571Z,52.57
2022-12-15T04:16:31.150Z,64.30
2022-12-15T04:19:36.971Z,53.60
2022-12-15T04:22:25.324Z,52.90
2022-12-15T04:25:34.286Z,55.20
2022-12-15T04:28:42.121Z,55.17
2022-12-15T04:31:51.579Z,50.33
2022-12-15T04:34:57.336Z,51.77
2022-12-15T04:38:03.412Z,48.00
2022-12-15T04:41:09.361Z,50.27
2022-12-15T04:44:16.724Z,48.40
2022-12-15T04:47:22.738Z,52.90
2022-12-15T04:50:28.838Z,53.27
2022-12-15T04:53:37.035Z,47.60
2022-12-15T04:56:42.891Z,45.37
2022-12-15T04:59:50.259Z,46.27
2022-12-15T05:02:55.877Z,47.80
2022-12-15T05:06:01.502Z,52.13
2022-12-15T05:09:07.361Z,53.60
2022-12-15T05:12:13.459Z,54.60
2022-12-15T05:15:20.706Z,52.70
2022-12-15T05:18:26.639Z,51.20
2022-12-15T05:21:32.606Z,50.40
2022-12-15T05:24:38.512Z,49.37
2022-12-15T05:27:44.376Z,52.33
2022-12-15T05:30:51.532Z,48.93
2022-12-15T05:33:39.915Z,58.90
2022-12-15T05:36:28.240Z,68.60
2022-12-15T05:39:16.674Z,62.57
2022-12-15T05:42:05.185Z,58.93
2022-12-15T05:44:53.617Z,52.00
2022-12-15T05:47:43.380Z,46.30
2022-12-15T05:50:31.992Z,46.60
2022-12-15T05:53:20.302Z,40.03
2022-12-15T05:56:11.490Z,41.43
2022-12-15T05:59:00.193Z,45.63
2022-12-15T06:01:48.684Z,42.33
2022-12-15T06:04:38.432Z,44.50
2022-12-15T06:07:26.866Z,41.40
2022-12-15T06:10:15.447Z,43.93
2022-12-15T06:13:04.290Z,47.43
2022-12-15T06:15:57.651Z,43.43
2022-12-15T06:18:49.984Z,39.47
2022-12-15T06:21:40.005Z,41.97
2022-12-15T06:24:28.521Z,36.20
2022-12-15T06:27:16.883Z,35.50
2022-12-15T06:30:06.137Z,39.87
2022-12-15T06:32:54.879Z,40.27
2022-12-15T06:35:43.212Z,37.30
2022-12-15T06:38:33.040Z,43.00
2022-12-15T06:41:22.554Z,43.43
2022-12-15T06:44:14.779Z,35.20
2022-12-15T06:47:03.933Z,38.77
2022-12-15T06:49:52.380Z,35.57
2022-12-15T06:52:41.675Z,41.83
2022-12-15T06:55:31.433Z,39.47
2022-12-15T06:58:19.774Z,34.60
2022-12-15T07:01:09.034Z,35.60
2022-12-15T07:03:59.993Z,36.40
2022-12-15T07:06:49.180Z,39.73
2022-12-15T07:09:37.520Z,38.43
2022-12-15T07:12:27.459Z,34.00
2022-12-15T07:15:15.960Z,34.37
2022-12-15T07:18:04.838Z,36.47
2022-12-15T07:20:53.263Z,36.50
2022-12-15T07:23:57.963Z,40.07
2022-12-15T07:26:48.927Z,35.57
2022-12-15T07:29:38.922Z,39.70
2022-12-15T07:32:27.312Z,44.07
2022-12-15T07:35:15.650Z,36.13
2022-12-15T07:38:08.071Z,32.77
2022-12-15T07:40:56.445Z,33.47
2022-12-15T07:43:45.459Z,35.43
2022-12-15T07:46:35.316Z,33.63
2022-12-15T07:49:23.808Z,37.23
2022-12-15T07:52:14.053Z,34.00
2022-12-15T07:55:02.382Z,36.63
2022-12-15T07:57:51.045Z,34.17
2022-12-15T08:00:43.806Z,31.80
2022-12-15T08:03:37.980Z,36.40
2022-12-15T08:06:26.881Z,37.17
2022-12-15T08:09:15.373Z,38.13
2022-12-15T08:12:04.026Z,30.83
2022-12-15T08:14:52.372Z,31.03
2022-12-15T08:17:41.284Z,35.33
2022-12-15T08:20:31.593Z,37.43
2022-12-15T08:23:20.077Z,34.08
2022-12-15T08:26:10.183Z,29.43
2022-12-15T08:29:17.434Z,29.60
2022-12-15T08:32:07.912Z,28.23
2022-12-15T08:34:56.336Z,30.67
2022-12-15T08:37:46.421Z,27.43
2022-12-15T08:40:34.758Z,28.80
2022-12-15T08:43:23.457Z,24.70
2022-12-15T08:46:13.022Z,25.00
2022-12-15T08:49:02.168Z,28.23
2022-12-15T08:51:51.247Z,30.10
2022-12-15T08:54:40.904Z,31.50
2022-12-15T08:57:29.216Z,27.57
2022-12-15T09:00:19.143Z,28.40
2022-12-15T09:03:07.479Z,28.80
2022-12-15T09:05:57.596Z,29.17
2022-12-15T09:08:48.542Z,28.30
2022-12-15T09:11:41.174Z,28.87
2022-12-15T09:14:29.840Z,30.73
2022-12-15T09:17:18.360Z,29.03
2022-12-15T09:20:08.350Z,30.37
2022-12-15T09:22:58.466Z,28.43
2022-12-15T09:25:47.387Z,31.07
2022-12-15T09:28:38.088Z,31.00
2022-12-15T09:31:29.340Z,25.92
2022-12-15T09:34:17.774Z,33.50
2022-12-15T09:37:06.200Z,29.90
2022-12-15T09:39:54.569Z,24.60
2022-12-15T09:43:04.894Z,31.30
2022-12-15T09:46:09.396Z,29.23
2022-12-15T09:49:01.107Z,34.20
2022-12-15T09:51:54.745Z,33.67
2022-12-15T09:54:45.147Z,32.40
2022-12-15T09:57:38.674Z,25.90
2022-12-15T10:00:32.109Z,26.83
2022-12-15T10:03:46.034Z,28.50
2022-12-15T10:06:38.392Z,29.50
2022-12-15T10:09:28.942Z,30.63
2022-12-15T10:12:22.058Z,29.52
2022-12-15T10:15:21.253Z,28.17
2022-12-15T10:18:20.798Z,26.90
2022-12-15T10:21:14.193Z,26.10
2022-12-15T10:24:31.620Z,30.90
2022-12-15T10:27:43.777Z,30.67
2022-12-15T10:30:32.345Z,23.77
2022-12-15T10:33:24.236Z,22.40
2022-12-15T10:36:16.475Z,21.30
2022-12-15T10:39:05.202Z,25.97
2022-12-15T10:42:13.320Z,33.33
2022-12-15T10:45:01.767Z,32.33
2022-12-15T10:48:02.424Z,29.57
2022-12-15T10:50:50.711Z,19.65
2022-12-15T10:53:44.397Z,24.43
2022-12-15T10:56:50.230Z,23.87
2022-12-15T10:59:39.529Z,25.87
2022-12-15T11:02:36.840Z,22.93
2022-12-15T11:05:25.699Z,20.50
2022-12-15T11:08:17.048Z,21.90
2022-12-15T11:11:45.162Z,20.40
2022-12-15T11:14:45.646Z,25.13
2022-12-15T11:17:43.023Z,15.00
2022-12-15T11:20:36.139Z,31.83
2022-12-15T11:23:31.840Z,57.37
2022-12-15T11:26:58.928Z,36.55
2022-12-15T11:30:00.261Z,26.23
2022-12-15T11:35:55.071Z,20.95
2022-12-15T11:38:49.035Z,21.30
2022-12-15T11:41:45.757Z,20.92
2022-12-15T11:44:45.898Z,18.48
2022-12-15T11:47:44.991Z,20.48
2022-12-15T11:50:42.502Z,19.00
2022-12-15T11:54:01.778Z,20.40
2022-12-15T11:56:57.577Z,17.65
2022-12-15T12:00:04.642Z,18.67
2022-12-15T12:03:04.957Z,20.83
2022-12-15T12:06:04.016Z,20.10
2022-12-15T12:09:09.963Z,26.60
2022-12-15T12:12:05.870Z,22.00
2022-12-15T12:15:08.408Z,19.20
2022-12-15T12:18:04.357Z,20.10
2022-12-15T12:20:59.298Z,19.15
2022-12-15T12:23:55.939Z,21.13
2022-12-15T12:26:48.440Z,26.17
2022-12-15T12:29:43.648Z,22.70
2022-12-15T12:32:40.512Z,20.38
2022-12-15T12:35:38.589Z,18.85
2022-12-15T12:38:32.779Z,20.63
2022-12-15T12:41:27.371Z,22.85
2022-12-15T12:44:25.540Z,17.45
2022-12-15T12:47:19.179Z,17.63
2022-12-15T12:50:15.575Z,21.23
2022-12-15T12:53:06.040Z,22.02
2022-12-15T12:55:54.520Z,21.08
2022-12-15T12:58:42.919Z,19.25
2022-12-15T13:01:33.469Z,19.70
2022-12-15T13:04:40.846Z,20.85
2022-12-15T13:07:31.826Z,19.88
2022-12-15T13:10:23.363Z,18.95
2022-12-15T13:13:37.383Z,25.23
2022-12-15T13:16:27.846Z,18.60
2022-12-15T13:19:16.466Z,17.63
2022-12-15T13:22:04.924Z,23.23
2022-12-15T13:24:53.406Z,24.75
2022-12-15T13:27:43.971Z,23.80
2022-12-15T13:30:32.386Z,21.30
2022-12-15T13:33:20.876Z,22.80
2022-12-15T13:36:09.155Z,20.70
2022-12-15T13:38:57.563Z,22.55
2022-12-15T13:42:34.100Z,20.80
2022-12-15T13:45:51.846Z,21.60
2022-12-15T13:48:42.811Z,20.83
2022-12-15T13:51:33.894Z,23.15
2022-12-15T13:54:26.103Z,25.20
2022-12-15T13:57:18.265Z,29.35
2022-12-15T14:00:18.406Z,23.80
2022-12-15T14:03:12.023Z,23.08
2022-12-15T14:06:01.355Z,24.20
2022-12-15T14:08:50.911Z,26.17
2022-12-15T14:11:58.361Z,26.00
2022-12-15T14:14:49.607Z,26.80
2022-12-15T14:20:30.674Z,34.05
2022-12-15T14:23:20.636Z,29.80
2022-12-15T14:26:11.267Z,33.40
2022-12-15T14:29:02.965Z,26.67
2022-12-15T14:31:54.287Z,33.08
2022-12-15T14:37:35.019Z,28.67
2022-12-15T14:40:28.663Z,25.70
2022-12-15T14:43:21.500Z,26.13
2022-12-15T14:46:12.321Z,24.52
2022-12-15T14:49:03.835Z,29.95
2022-12-15T14:51:57.900Z,32.45
2022-12-15T14:54:57.240Z,28.75
2022-12-15T14:57:47.514Z,33.45
2022-12-15T15:00:38.216Z,35.75
2022-12-15T15:03:35.625Z,27.65
2022-12-15T15:06:30.902Z,36.88
2022-12-15T15:09:25.826Z,36.30
2022-12-15T15:12:21.216Z,33.25
2022-12-15T15:15:15.320Z,37.40
2022-12-15T15:18:03.651Z,41.92
2022-12-15T15:20:56.679Z,38.25
2022-12-15T15:23:59.242Z,38.42
2022-12-15T15:26:47.607Z,43.13
2022-12-15T15:29:41.704Z,40.60
2022-12-15T15:32:30.237Z,42.25
2022-12-15T15:35:18.915Z,48.30
2022-12-15T15:38:16.615Z,47.90
2022-12-15T15:41:16.707Z,41.78
2022-12-15T15:44:13.202Z,50.25
2022-12-15T15:47:02.859Z,51.25
2022-12-15T15:49:51.955Z,45.40
2022-12-15T15:52:40.250Z,45.70
2022-12-15T15:55:36.327Z,43.53
2022-12-15T15:58:27.839Z,50.85
2022-12-15T16:01:16.264Z,49.27
2022-12-15T16:04:07.238Z,42.42
2022-12-15T16:06:55.784Z,42.42
2022-12-15T16:09:44.360Z,50.03
2022-12-15T16:12:37.335Z,46.35
2022-12-15T16:15:29.433Z,44.70
2022-12-15T16:18:17.947Z,50.57
2022-12-15T16:21:11.210Z,54.37
2022-12-15T16:24:00.265Z,49.53
2022-12-15T16:26:50.882Z,50.10
2022-12-15T16:29:39.174Z,52.80
2022-12-15T16:32:27.464Z,48.73
2022-12-15T16:35:15.913Z,49.63
2022-12-15T16:38:06.216Z,51.97
2022-12-15T16:40:56.137Z,48.77
2022-12-15T16:43:48.160Z,49.53
2022-12-15T16:46:36.716Z,55.13
2022-12-15T16:49:25.111Z,58.37
2022-12-15T16:52:19.959Z,58.20
2022-12-15T16:55:19.518Z,52.40
2022-12-15T16:58:13.759Z,52.33
2022-12-15T17:01:02.696Z,55.43
2022-12-15T17:03:51.148Z,52.73
2022-12-15T17:06:39.808Z,56.27
2022-12-15T17:09:28.193Z,62.17
2022-12-15T17:12:19.321Z,65.93
2022-12-15T17:15:17.505Z,66.13
2022-12-15T17:18:06.044Z,67.17
2022-12-15T17:21:02.616Z,62.73
2022-12-15T17:23:54.039Z,55.17
2022-12-15T17:26:51.620Z,58.50
2022-12-15T17:29:43.060Z,56.17
2022-12-15T17:32:31.390Z,55.28
2022-12-15T17:35:19.975Z,58.47
2022-12-15T17:38:13.798Z,61.53
2022-12-15T17:41:02.477Z,58.87
2022-12-15T17:44:09.822Z,65.83
2022-12-15T17:47:01.124Z,58.23
2022-12-15T17:49:49.526Z,61.50
2022-12-15T17:52:38.083Z,59.37
2022-12-15T17:55:34.856Z,53.77
2022-12-15T17:58:25.566Z,53.50
2022-12-15T18:01:15.150Z,50.53
2022-12-15T18:04:05.075Z,59.40
2022-12-15T18:07:00.957Z,48.87
2022-12-15T18:09:52.103Z,53.47
2022-12-15T18:12:40.439Z,41.30
2022-12-15T18:15:33.270Z,51.53
2022-12-15T18:18:23.593Z,56.50
2022-12-15T18:21:16.540Z,51.88
2022-12-15T18:24:05.117Z,54.23
2022-12-15T18:26:53.738Z,72.03
2022-12-15T18:29:42.054Z,70.60
2022-12-15T18:32:31.270Z,61.47
2022-12-15T18:35:23.580Z,59.10
2022-12-15T18:38:18.912Z,57.90
2022-12-15T18:41:07.695Z,58.13
2022-12-15T18:43:58.648Z,54.07
2022-12-15T18:46:48.203Z,51.58
2022-12-15T18:49:36.813Z,50.87
2022-12-15T18:52:31.444Z,56.90
2022-12-15T18:55:23.740Z,51.50
2022-12-15T18:58:21.149Z,42.70
2022-12-15T19:01:10.675Z,49.60
2022-12-15T19:03:59.110Z,46.33
2022-12-15T19:06:47.431Z,46.17
2022-12-15T19:09:35.992Z,48.20
2022-12-15T19:12:25.933Z,51.40
2022-12-15T19:15:17.292Z,51.67
2022-12-15T19:18:23.281Z,50.47
2022-12-15T19:21:43.655Z,47.73
2022-12-15T19:24:50.110Z,52.83
2022-12-15T19:27:39.782Z,58.10
2022-12-15T19:30:31.004Z,60.53
2022-12-15T19:33:20.509Z,61.10
2022-12-15T19:36:16.164Z,60.10
2022-12-15T19:39:05.660Z,60.07
2022-12-15T19:41:57.007Z,81.13
2022-12-15T19:44:46.824Z,62.90
2022-12-15T19:47:35.405Z,67.73
2022-12-15T19:50:25.909Z,69.10
2022-12-15T19:53:24.307Z,56.83
2022-12-15T19:56:16.685Z,73.23
2022-12-15T19:59:05.040Z,68.63
2022-12-15T20:01:54.860Z,77.17
2022-12-15T20:04:43.393Z,76.43
2022-12-15T20:07:32.027Z,72.40
2022-12-15T20:10:27.539Z,65.50
2022-12-15T20:13:18.597Z,66.27
2022-12-15T20:16:07.259Z,68.07
2022-12-15T20:18:57.175Z,62.77
2022-12-15T20:21:45.574Z,78.30
2022-12-15T20:24:34.804Z,71.80
2022-12-15T20:27:23.156Z,74.00
2022-12-15T20:30:19.746Z,67.90
2022-12-15T20:33:08.187Z,61.40
2022-12-15T20:35:57.840Z,61.27
2022-12-15T20:38:46.995Z,68.73
2022-12-15T20:41:35.298Z,61.23
2022-12-15T20:44:24.128Z,68.83
2022-12-15T20:47:20.461Z,57.50
2022-12-15T20:50:23.291Z,57.93
2022-12-15T20:53:18.293Z,55.93
2022-12-15T20:56:07.247Z,54.80
2022-12-15T20:58:57.248Z,58.67
2022-12-15T21:01:46.552Z,53.03
2022-12-15T21:04:35.140Z,57.90
2022-12-15T21:07:23.477Z,62.67
2022-12-15T21:10:15.605Z,55.27
2022-12-15T21:13:03.894Z,61.30
2022-12-15T21:15:52.564Z,70.97
2022-12-15T21:19:18.182Z,91.87
2022-12-15T21:21:52.264Z,81.50
2022-12-15T21:24:43.700Z,78.70
2022-12-15T21:27:33.392Z,80.53
2022-12-15T21:30:25.724Z,77.73
2022-12-15T21:33:14.195Z,65.60
2022-12-15T21:36:02.672Z,62.43
2022-12-15T21:38:52.925Z,68.73
2022-12-15T21:41:44.551Z,69.50
2022-12-15T21:44:34.259Z,56.07
2022-12-15T21:47:25.728Z,55.70
2022-12-15T21:50:13.156Z,65.73
2022-12-15T21:53:02.159Z,57.23
2022-12-15T21:55:50.509Z,62.17
2022-12-15T21:58:38.832Z,60.40
2022-12-15T22:01:31.583Z,67.20
2022-12-15T22:04:24.004Z,64.70
2022-12-15T22:07:16.922Z,57.73
2022-12-15T22:10:06.108Z,60.20
2022-12-15T22:12:59.627Z,67.20
2022-12-15T22:15:50.707Z,62.30
2022-12-15T22:18:41.402Z,51.33
2022-12-15T22:21:29.999Z,60.27
2022-12-15T22:24:19.039Z,59.63
2022-12-15T22:27:15.018Z,62.77
2022-12-15T22:30:03.421Z,60.43
2022-12-15T22:32:52.022Z,59.93
2022-12-15T22:35:43.375Z,60.30
2022-12-15T22:38:32.011Z,59.43
2022-12-15T22:41:23.257Z,62.80
2022-12-15T22:44:17.417Z,59.95
2022-12-15T22:47:05.837Z,57.60
2022-12-15T22:49:54.255Z,55.53
2022-12-15T22:52:46.287Z,57.17
2022-12-15T22:55:34.667Z,51.23
2022-12-15T22:58:27.872Z,50.73
2022-12-15T23:01:16.186Z,57.30
2022-12-15T23:04:06.444Z,56.13
2022-12-15T23:06:54.990Z,54.33
2022-12-15T23:09:44.723Z,57.17
2022-12-15T23:12:32.043Z,54.83
2022-12-15T23:15:37.835Z,61.57
2022-12-15T23:18:26.228Z,58.53
2022-12-15T23:21:14.558Z,58.53
2022-12-15T23:24:02.979Z,58.47
2022-12-15T23:26:52.651Z,57.33
2022-12-15T23:29:41.003Z,64.87
2022-12-15T23:32:29.351Z,60.37
2022-12-15T23:35:17.677Z,64.33
2022-12-15T23:38:06.071Z,59.00
2022-12-15T23:40:56.835Z,49.90
2022-12-15T23:43:46.680Z,58.88
2022-12-15T23:46:35.088Z,60.20
2022-12-15T23:49:23.474Z,57.13
2022-12-15T23:52:11.855Z,57.33
2022-12-15T23:55:00.183Z,51.83
2022-12-15T23:57:48.475Z,52.53
